sensor_id;sensor_type;location;lat;lon;timestamp;P1;durP1;ratioP1;P2;durP2;ratioP2
48743;SDS011;34538;48.836;9.174;2023-02-21T00:00:24;9.82;;;4.72;;
48743;SDS011;34538;48.836;9.174;2023-02-21T00:03:08;7.88;;;3.33;;
48743;SDS011;34538;48.836;9.174;2023-02-21T00:05:53;10.43;;;4.00;;
48743;SDS011;34538;48.836;9.174;2023-02-21T00:08:37;6.53;;;3.28;;
48743;SDS011;34538;48.836;9.174;2023-02-21T00:11:21;8.60;;;3.85;;
48743;SDS011;34538;48.836;9.174;2023-02-21T00:14:07;7.47;;;4.22;;
48743;SDS011;34538;48.836;9.174;2023-02-21T00:16:52;7.22;;;3.78;;
48743;SDS011;34538;48.836;9.174;2023-02-21T00:19:36;7.25;;;3.33;;
48743;SDS011;34538;48.836;9.174;2023-02-21T00:22:21;8.50;;;3.47;;
48743;SDS011;34538;48.836;9.174;2023-02-21T00:25:05;8.25;;;3.53;;
48743;SDS011;34538;48.836;9.174;2023-02-21T00:27:49;9.55;;;3.08;;
48743;SDS011;34538;48.836;9.174;2023-02-21T00:30:35;6.78;;;3.17;;
48743;SDS011;34538;48.836;9.174;2023-02-21T00:33:20;10.05;;;3.50;;
48743;SDS011;34538;48.836;9.174;2023-02-21T00:36:04;4.93;;;2.85;;
48743;SDS011;34538;48.836;9.174;2023-02-21T00:38:49;6.00;;;2.88;;
48743;SDS011;34538;48.836;9.174;2023-02-21T00:41:33;7.10;;;2.97;;
48743;SDS011;34538;48.836;9.174;2023-02-21T00:44:18;6.18;;;3.22;;
48743;SDS011;34538;48.836;9.174;2023-02-21T00:47:04;10.07;;;3.13;;
48743;SDS011;34538;48.836;9.174;2023-02-21T00:49:48;5.45;;;3.20;;
48743;SDS011;34538;48.836;9.174;2023-02-21T00:52:33;6.60;;;3.10;;
48743;SDS011;34538;48.836;9.174;2023-02-21T00:55:17;8.43;;;3.28;;
48743;SDS011;34538;48.836;9.174;2023-02-21T00:58:02;10.50;;;3.42;;
48743;SDS011;34538;48.836;9.174;2023-02-21T01:00:46;7.85;;;2.85;;
48743;SDS011;34538;48.836;9.174;2023-02-21T01:03:32;6.35;;;3.25;;
48743;SDS011;34538;48.836;9.174;2023-02-21T01:06:18;7.53;;;2.75;;
48743;SDS011;34538;48.836;9.174;2023-02-21T01:09:02;6.95;;;2.92;;
48743;SDS011;34538;48.836;9.174;2023-02-21T01:11:46;9.05;;;3.20;;
48743;SDS011;34538;48.836;9.174;2023-02-21T01:14:32;8.55;;;3.35;;
48743;SDS011;34538;48.836;9.174;2023-02-21T01:17:17;8.13;;;3.50;;
48743;SDS011;34538;48.836;9.174;2023-02-21T01:20:04;6.47;;;3.10;;
48743;SDS011;34538;48.836;9.174;2023-02-21T01:22:49;12.13;;;3.40;;
48743;SDS011;34538;48.836;9.174;2023-02-21T01:25:34;11.98;;;4.13;;
48743;SDS011;34538;48.836;9.174;2023-02-21T01:28:18;7.15;;;3.00;;
48743;SDS011;34538;48.836;9.174;2023-02-21T01:31:02;7.32;;;3.05;;
48743;SDS011;34538;48.836;9.174;2023-02-21T01:33:47;5.13;;;3.22;;
48743;SDS011;34538;48.836;9.174;2023-02-21T01:36:33;5.70;;;2.83;;
48743;SDS011;34538;48.836;9.174;2023-02-21T01:39:19;7.15;;;3.00;;
48743;SDS011;34538;48.836;9.174;2023-02-21T01:42:03;9.48;;;3.67;;
48743;SDS011;34538;48.836;9.174;2023-02-21T01:44:48;5.68;;;2.85;;
48743;SDS011;34538;48.836;9.174;2023-02-21T01:47:47;5.70;;;2.70;;
48743;SDS011;34538;48.836;9.174;2023-02-21T01:50:31;4.88;;;2.65;;
48743;SDS011;34538;48.836;9.174;2023-02-21T01:53:19;6.35;;;2.70;;
48743;SDS011;34538;48.836;9.174;2023-02-21T01:56:07;4.72;;;2.58;;
48743;SDS011;34538;48.836;9.174;2023-02-21T01:58:53;7.35;;;2.47;;
48743;SDS011;34538;48.836;9.174;2023-02-21T02:01:41;4.97;;;2.85;;
48743;SDS011;34538;48.836;9.174;2023-02-21T02:04:30;6.30;;;2.97;;
48743;SDS011;34538;48.836;9.174;2023-02-21T02:07:16;5.40;;;2.38;;
48743;SDS011;34538;48.836;9.174;2023-02-21T02:10:01;6.85;;;2.88;;
48743;SDS011;34538;48.836;9.174;2023-02-21T02:12:51;4.70;;;2.53;;
48743;SDS011;34538;48.836;9.174;2023-02-21T02:15:41;7.40;;;2.60;;
48743;SDS011;34538;48.836;9.174;2023-02-21T02:18:25;5.70;;;2.45;;
48743;SDS011;34538;48.836;9.174;2023-02-21T02:21:09;6.38;;;2.97;;
48743;SDS011;34538;48.836;9.174;2023-02-21T02:27:03;4.75;;;2.45;;
48743;SDS011;34538;48.836;9.174;2023-02-21T02:33:13;8.02;;;2.33;;
48743;SDS011;34538;48.836;9.174;2023-02-21T02:36:06;6.18;;;2.72;;
48743;SDS011;34538;48.836;9.174;2023-02-21T02:38:40;10.10;;;3.08;;
48743;SDS011;34538;48.836;9.174;2023-02-21T02:41:15;6.95;;;2.85;;
48743;SDS011;34538;48.836;9.174;2023-02-21T02:43:50;9.40;;;2.90;;
48743;SDS011;34538;48.836;9.174;2023-02-21T02:46:21;5.97;;;2.47;;
48743;SDS011;34538;48.836;9.174;2023-02-21T02:48:52;10.70;;;2.90;;
48743;SDS011;34538;48.836;9.174;2023-02-21T02:51:26;6.93;;;2.42;;
48743;SDS011;34538;48.836;9.174;2023-02-21T02:53:57;6.15;;;2.80;;
48743;SDS011;34538;48.836;9.174;2023-02-21T02:56:24;8.07;;;3.20;;
48743;SDS011;34538;48.836;9.174;2023-02-21T02:58:54;6.18;;;2.88;;
48743;SDS011;34538;48.836;9.174;2023-02-21T03:01:32;5.88;;;2.83;;
48743;SDS011;34538;48.836;9.174;2023-02-21T03:04:28;6.82;;;2.67;;
48743;SDS011;34538;48.836;9.174;2023-02-21T03:07:16;5.40;;;2.60;;
48743;SDS011;34538;48.836;9.174;2023-02-21T03:09:51;8.20;;;2.83;;
48743;SDS011;34538;48.836;9.174;2023-02-21T03:12:25;6.20;;;2.70;;
48743;SDS011;34538;48.836;9.174;2023-02-21T03:15:02;9.45;;;2.92;;
48743;SDS011;34538;48.836;9.174;2023-02-21T03:17:36;8.07;;;2.95;;
48743;SDS011;34538;48.836;9.174;2023-02-21T03:20:07;4.45;;;2.50;;
48743;SDS011;34538;48.836;9.174;2023-02-21T03:22:38;6.63;;;2.85;;
48743;SDS011;34538;48.836;9.174;2023-02-21T03:25:07;5.25;;;2.88;;
48743;SDS011;34538;48.836;9.174;2023-02-21T03:27:36;6.45;;;2.80;;
48743;SDS011;34538;48.836;9.174;2023-02-21T03:30:14;4.28;;;2.53;;
48743;SDS011;34538;48.836;9.174;2023-02-21T03:32:44;4.57;;;2.28;;
48743;SDS011;34538;48.836;9.174;2023-02-21T03:35:14;5.88;;;2.83;;
48743;SDS011;34538;48.836;9.174;2023-02-21T03:37:44;8.35;;;3.00;;
48743;SDS011;34538;48.836;9.174;2023-02-21T03:40:14;5.10;;;2.83;;
48743;SDS011;34538;48.836;9.174;2023-02-21T03:42:46;8.73;;;3.22;;
48743;SDS011;34538;48.836;9.174;2023-02-21T03:45:16;6.97;;;2.85;;
48743;SDS011;34538;48.836;9.174;2023-02-21T03:47:50;7.25;;;2.95;;
48743;SDS011;34538;48.836;9.174;2023-02-21T03:50:18;6.07;;;2.72;;
48743;SDS011;34538;48.836;9.174;2023-02-21T03:52:46;7.57;;;3.15;;
48743;SDS011;34538;48.836;9.174;2023-02-21T03:55:13;6.45;;;3.53;;
48743;SDS011;34538;48.836;9.174;2023-02-21T03:57:41;5.93;;;3.10;;
48743;SDS011;34538;48.836;9.174;2023-02-21T04:00:08;5.45;;;2.92;;
48743;SDS011;34538;48.836;9.174;2023-02-21T04:02:42;6.45;;;3.03;;
48743;SDS011;34538;48.836;9.174;2023-02-21T04:05:18;9.07;;;2.72;;
48743;SDS011;34538;48.836;9.174;2023-02-21T04:07:48;5.97;;;2.90;;
48743;SDS011;34538;48.836;9.174;2023-02-21T04:10:15;6.78;;;2.90;;
48743;SDS011;34538;48.836;9.174;2023-02-21T04:12:44;6.68;;;2.95;;
48743;SDS011;34538;48.836;9.174;2023-02-21T04:15:11;4.72;;;2.78;;
48743;SDS011;34538;48.836;9.174;2023-02-21T04:17:38;8.25;;;2.95;;
48743;SDS011;34538;48.836;9.174;2023-02-21T04:20:08;7.68;;;3.03;;
48743;SDS011;34538;48.836;9.174;2023-02-21T04:22:40;8.93;;;2.92;;
48743;SDS011;34538;48.836;9.174;2023-02-21T04:25:09;6.82;;;2.95;;
48743;SDS011;34538;48.836;9.174;2023-02-21T04:27:45;6.18;;;3.00;;
48743;SDS011;34538;48.836;9.174;2023-02-21T04:30:12;7.13;;;3.22;;
48743;SDS011;34538;48.836;9.174;2023-02-21T04:32:39;8.30;;;3.08;;
48743;SDS011;34538;48.836;9.174;2023-02-21T04:37:37;9.93;;;3.50;;
48743;SDS011;34538;48.836;9.174;2023-02-21T04:40:05;13.30;;;3.42;;
48743;SDS011;34538;48.836;9.174;2023-02-21T04:42:35;8.65;;;3.80;;
48743;SDS011;34538;48.836;9.174;2023-02-21T04:45:02;8.15;;;3.67;;
48743;SDS011;34538;48.836;9.174;2023-02-21T04:47:29;12.02;;;4.25;;
48743;SDS011;34538;48.836;9.174;2023-02-21T04:49:55;9.40;;;3.80;;
48743;SDS011;34538;48.836;9.174;2023-02-21T04:52:22;7.60;;;3.80;;
48743;SDS011;34538;48.836;9.174;2023-02-21T04:54:49;9.20;;;4.00;;
48743;SDS011;34538;48.836;9.174;2023-02-21T04:57:16;7.90;;;3.67;;
48743;SDS011;34538;48.836;9.174;2023-02-21T04:59:44;7.18;;;3.65;;
48743;SDS011;34538;48.836;9.174;2023-02-21T05:02:11;8.20;;;3.80;;
48743;SDS011;34538;48.836;9.174;2023-02-21T05:04:38;10.65;;;4.32;;
48743;SDS011;34538;48.836;9.174;2023-02-21T05:07:07;11.60;;;5.32;;
48743;SDS011;34538;48.836;9.174;2023-02-21T05:09:33;15.77;;;6.20;;
48743;SDS011;34538;48.836;9.174;2023-02-21T05:12:00;16.10;;;6.50;;
48743;SDS011;34538;48.836;9.174;2023-02-21T05:14:27;15.15;;;6.43;;
48743;SDS011;34538;48.836;9.174;2023-02-21T05:16:55;11.88;;;5.15;;
48743;SDS011;34538;48.836;9.174;2023-02-21T05:19:22;8.25;;;4.38;;
48743;SDS011;34538;48.836;9.174;2023-02-21T05:21:53;8.57;;;4.07;;
48743;SDS011;34538;48.836;9.174;2023-02-21T05:24:21;8.32;;;3.95;;
48743;SDS011;34538;48.836;9.174;2023-02-21T05:26:48;9.93;;;4.03;;
48743;SDS011;34538;48.836;9.174;2023-02-21T05:29:15;8.40;;;3.78;;
48743;SDS011;34538;48.836;9.174;2023-02-21T05:31:42;8.63;;;3.45;;
48743;SDS011;34538;48.836;9.174;2023-02-21T05:34:11;8.70;;;4.13;;
48743;SDS011;34538;48.836;9.174;2023-02-21T05:36:38;8.13;;;4.68;;
48743;SDS011;34538;48.836;9.174;2023-02-21T05:39:06;8.50;;;4.25;;
48743;SDS011;34538;48.836;9.174;2023-02-21T05:41:34;9.43;;;3.90;;
48743;SDS011;34538;48.836;9.174;2023-02-21T05:44:01;10.98;;;4.85;;
48743;SDS011;34538;48.836;9.174;2023-02-21T05:46:30;9.07;;;4.70;;
48743;SDS011;34538;48.836;9.174;2023-02-21T05:48:59;13.32;;;5.47;;
48743;SDS011;34538;48.836;9.174;2023-02-21T05:51:32;14.27;;;5.30;;
48743;SDS011;34538;48.836;9.174;2023-02-21T05:54:00;8.13;;;4.25;;
48743;SDS011;34538;48.836;9.174;2023-02-21T05:56:26;9.25;;;4.28;;
48743;SDS011;34538;48.836;9.174;2023-02-21T05:58:53;9.45;;;3.83;;
48743;SDS011;34538;48.836;9.174;2023-02-21T06:01:20;8.73;;;4.47;;
48743;SDS011;34538;48.836;9.174;2023-02-21T06:03:47;8.15;;;4.30;;
48743;SDS011;34538;48.836;9.174;2023-02-21T06:06:14;12.27;;;4.75;;
48743;SDS011;34538;48.836;9.174;2023-02-21T06:08:43;10.00;;;3.80;;
48743;SDS011;34538;48.836;9.174;2023-02-21T06:11:10;9.13;;;3.85;;
48743;SDS011;34538;48.836;9.174;2023-02-21T06:13:37;10.93;;;4.22;;
48743;SDS011;34538;48.836;9.174;2023-02-21T06:16:04;8.70;;;4.28;;
48743;SDS011;34538;48.836;9.174;2023-02-21T06:18:31;12.15;;;4.82;;
48743;SDS011;34538;48.836;9.174;2023-02-21T06:20:58;9.85;;;4.63;;
48743;SDS011;34538;48.836;9.174;2023-02-21T06:23:25;7.78;;;4.22;;
48743;SDS011;34538;48.836;9.174;2023-02-21T06:25:53;11.57;;;5.00;;
48743;SDS011;34538;48.836;9.174;2023-02-21T06:28:20;12.07;;;5.35;;
48743;SDS011;34538;48.836;9.174;2023-02-21T06:30:47;13.50;;;4.10;;
48743;SDS011;34538;48.836;9.174;2023-02-21T06:33:14;10.20;;;4.20;;
48743;SDS011;34538;48.836;9.174;2023-02-21T06:35:47;9.65;;;3.67;;
48743;SDS011;34538;48.836;9.174;2023-02-21T06:38:16;8.05;;;3.92;;
48743;SDS011;34538;48.836;9.174;2023-02-21T06:40:43;12.45;;;4.20;;
48743;SDS011;34538;48.836;9.174;2023-02-21T06:43:11;10.85;;;4.97;;
48743;SDS011;34538;48.836;9.174;2023-02-21T06:45:38;18.58;;;4.88;;
48743;SDS011;34538;48.836;9.174;2023-02-21T06:48:05;14.00;;;4.85;;
48743;SDS011;34538;48.836;9.174;2023-02-21T06:50:33;12.30;;;5.15;;
48743;SDS011;34538;48.836;9.174;2023-02-21T06:53:00;12.13;;;5.43;;
48743;SDS011;34538;48.836;9.174;2023-02-21T06:55:27;14.68;;;5.18;;
48743;SDS011;34538;48.836;9.174;2023-02-21T06:57:54;14.75;;;4.55;;
48743;SDS011;34538;48.836;9.174;2023-02-21T07:00:22;9.10;;;4.68;;
48743;SDS011;34538;48.836;9.174;2023-02-21T07:02:51;10.05;;;4.63;;
48743;SDS011;34538;48.836;9.174;2023-02-21T07:05:18;10.77;;;4.93;;
48743;SDS011;34538;48.836;9.174;2023-02-21T07:07:45;9.88;;;4.72;;
48743;SDS011;34538;48.836;9.174;2023-02-21T07:10:12;14.55;;;5.38;;
48743;SDS011;34538;48.836;9.174;2023-02-21T07:12:39;14.65;;;5.15;;
48743;SDS011;34538;48.836;9.174;2023-02-21T07:15:06;9.40;;;4.57;;
48743;SDS011;34538;48.836;9.174;2023-02-21T07:17:35;8.60;;;4.28;;
48743;SDS011;34538;48.836;9.174;2023-02-21T07:20:02;9.30;;;5.00;;
48743;SDS011;34538;48.836;9.174;2023-02-21T07:22:30;10.48;;;5.28;;
48743;SDS011;34538;48.836;9.174;2023-02-21T07:24:56;14.75;;;5.10;;
48743;SDS011;34538;48.836;9.174;2023-02-21T07:27:23;10.18;;;4.63;;
48743;SDS011;34538;48.836;9.174;2023-02-21T07:29:50;8.82;;;4.47;;
48743;SDS011;34538;48.836;9.174;2023-02-21T07:32:17;7.68;;;4.60;;
48743;SDS011;34538;48.836;9.174;2023-02-21T07:34:46;9.10;;;4.80;;
48743;SDS011;34538;48.836;9.174;2023-02-21T07:37:13;12.20;;;5.32;;
48743;SDS011;34538;48.836;9.174;2023-02-21T07:39:40;11.13;;;5.22;;
48743;SDS011;34538;48.836;9.174;2023-02-21T07:42:06;10.40;;;5.20;;
48743;SDS011;34538;48.836;9.174;2023-02-21T07:44:33;10.85;;;5.55;;
48743;SDS011;34538;48.836;9.174;2023-02-21T07:47:00;10.10;;;5.28;;
48743;SDS011;34538;48.836;9.174;2023-02-21T07:49:27;11.68;;;5.35;;
48743;SDS011;34538;48.836;9.174;2023-02-21T07:51:55;9.93;;;5.40;;
48743;SDS011;34538;48.836;9.174;2023-02-21T07:54:22;11.07;;;4.57;;
48743;SDS011;34538;48.836;9.174;2023-02-21T07:56:49;10.52;;;4.63;;
48743;SDS011;34538;48.836;9.174;2023-02-21T07:59:16;8.45;;;4.38;;
48743;SDS011;34538;48.836;9.174;2023-02-21T08:01:43;8.68;;;4.25;;
48743;SDS011;34538;48.836;9.174;2023-02-21T08:04:11;8.60;;;4.38;;
48743;SDS011;34538;48.836;9.174;2023-02-21T08:06:39;8.13;;;4.63;;
48743;SDS011;34538;48.836;9.174;2023-02-21T08:09:07;8.65;;;4.38;;
48743;SDS011;34538;48.836;9.174;2023-02-21T08:11:34;8.68;;;4.97;;
48743;SDS011;34538;48.836;9.174;2023-02-21T08:14:01;12.63;;;5.38;;
48743;SDS011;34538;48.836;9.174;2023-02-21T08:16:28;10.52;;;5.18;;
48743;SDS011;34538;48.836;9.174;2023-02-21T08:18:55;8.15;;;4.95;;
48743;SDS011;34538;48.836;9.174;2023-02-21T08:21:22;8.02;;;4.55;;
48743;SDS011;34538;48.836;9.174;2023-02-21T08:23:50;8.48;;;4.38;;
48743;SDS011;34538;48.836;9.174;2023-02-21T08:26:20;9.32;;;4.55;;
48743;SDS011;34538;48.836;9.174;2023-02-21T08:28:46;8.80;;;4.25;;
48743;SDS011;34538;48.836;9.174;2023-02-21T08:31:13;11.00;;;4.85;;
48743;SDS011;34538;48.836;9.174;2023-02-21T08:33:40;12.65;;;4.30;;
48743;SDS011;34538;48.836;9.174;2023-02-21T08:36:07;7.20;;;3.78;;
48743;SDS011;34538;48.836;9.174;2023-02-21T08:38:34;9.93;;;4.00;;
48743;SDS011;34538;48.836;9.174;2023-02-21T08:41:01;8.20;;;3.58;;
48743;SDS011;34538;48.836;9.174;2023-02-21T08:43:32;10.85;;;4.18;;
48743;SDS011;34538;48.836;9.174;2023-02-21T08:45:59;7.28;;;3.67;;
48743;SDS011;34538;48.836;9.174;2023-02-21T08:48:26;8.55;;;3.38;;
48743;SDS011;34538;48.836;9.174;2023-02-21T08:50:53;7.35;;;3.85;;
48743;SDS011;34538;48.836;9.174;2023-02-21T08:53:20;9.55;;;4.05;;
48743;SDS011;34538;48.836;9.174;2023-02-21T08:55:47;9.63;;;4.13;;
48743;SDS011;34538;48.836;9.174;2023-02-21T08:58:14;7.78;;;3.45;;
48743;SDS011;34538;48.836;9.174;2023-02-21T09:00:42;7.40;;;4.00;;
48743;SDS011;34538;48.836;9.174;2023-02-21T09:03:08;6.15;;;3.42;;
48743;SDS011;34538;48.836;9.174;2023-02-21T09:05:35;7.57;;;3.47;;
48743;SDS011;34538;48.836;9.174;2023-02-21T09:08:02;8.18;;;4.25;;
48743;SDS011;34538;48.836;9.174;2023-02-21T09:10:29;7.13;;;3.85;;
48743;SDS011;34538;48.836;9.174;2023-02-21T09:12:58;7.65;;;3.53;;
48743;SDS011;34538;48.836;9.174;2023-02-21T09:15:24;7.63;;;3.25;;
48743;SDS011;34538;48.836;9.174;2023-02-21T09:17:53;5.80;;;3.65;;
48743;SDS011;34538;48.836;9.174;2023-02-21T09:20:21;8.15;;;3.63;;
48743;SDS011;34538;48.836;9.174;2023-02-21T09:22:50;8.00;;;3.63;;
48743;SDS011;34538;48.836;9.174;2023-02-21T09:25:18;9.15;;;4.25;;
48743;SDS011;34538;48.836;9.174;2023-02-21T09:27:48;9.33;;;4.10;;
48743;SDS011;34538;48.836;9.174;2023-02-21T09:30:15;7.75;;;3.78;;
48743;SDS011;34538;48.836;9.174;2023-02-21T09:32:44;7.22;;;3.92;;
48743;SDS011;34538;48.836;9.174;2023-02-21T09:35:13;7.50;;;4.40;;
48743;SDS011;34538;48.836;9.174;2023-02-21T09:37:41;8.52;;;4.30;;
48743;SDS011;34538;48.836;9.174;2023-02-21T09:40:15;7.60;;;4.45;;
48743;SDS011;34538;48.836;9.174;2023-02-21T09:42:50;12.95;;;4.28;;
48743;SDS011;34538;48.836;9.174;2023-02-21T09:45:20;8.50;;;3.63;;
48743;SDS011;34538;48.836;9.174;2023-02-21T09:47:48;6.68;;;3.85;;
48743;SDS011;34538;48.836;9.174;2023-02-21T09:50:20;16.80;;;8.70;;
48743;SDS011;34538;48.836;9.174;2023-02-21T09:52:55;8.82;;;3.72;;
48743;SDS011;34538;48.836;9.174;2023-02-21T09:55:26;8.10;;;3.90;;
48743;SDS011;34538;48.836;9.174;2023-02-21T09:57:55;6.68;;;3.28;;
48743;SDS011;34538;48.836;9.174;2023-02-21T10:00:23;6.72;;;3.67;;
48743;SDS011;34538;48.836;9.174;2023-02-21T10:02:57;6.20;;;3.07;;
48743;SDS011;34538;48.836;9.174;2023-02-21T10:05:36;9.63;;;3.40;;
48743;SDS011;34538;48.836;9.174;2023-02-21T10:08:11;8.13;;;3.38;;
48743;SDS011;34538;48.836;9.174;2023-02-21T10:10:45;5.00;;;3.13;;
48743;SDS011;34538;48.836;9.174;2023-02-21T10:13:21;10.20;;;3.35;;
48743;SDS011;34538;48.836;9.174;2023-02-21T10:18:27;5.72;;;2.95;;
48743;SDS011;34538;48.836;9.174;2023-02-21T10:21:03;7.03;;;3.45;;
48743;SDS011;34538;48.836;9.174;2023-02-21T10:23:38;7.65;;;3.15;;
48743;SDS011;34538;48.836;9.174;2023-02-21T10:26:09;5.45;;;3.00;;
48743;SDS011;34538;48.836;9.174;2023-02-21T10:28:37;5.05;;;3.03;;
48743;SDS011;34538;48.836;9.174;2023-02-21T10:31:06;4.53;;;2.75;;
48743;SDS011;34538;48.836;9.174;2023-02-21T10:33:35;8.02;;;3.40;;
48743;SDS011;34538;48.836;9.174;2023-02-21T10:36:10;8.35;;;3.25;;
48743;SDS011;34538;48.836;9.174;2023-02-21T10:38:38;4.80;;;3.22;;
48743;SDS011;34538;48.836;9.174;2023-02-21T10:41:08;7.18;;;3.15;;
48743;SDS011;34538;48.836;9.174;2023-02-21T10:43:37;11.15;;;3.47;;
48743;SDS011;34538;48.836;9.174;2023-02-21T10:46:10;6.03;;;3.28;;
48743;SDS011;34538;48.836;9.174;2023-02-21T10:48:43;7.57;;;3.03;;
48743;SDS011;34538;48.836;9.174;2023-02-21T10:51:15;6.00;;;2.90;;
48743;SDS011;34538;48.836;9.174;2023-02-21T10:53:43;6.50;;;2.92;;
48743;SDS011;34538;48.836;9.174;2023-02-21T10:56:19;12.15;;;3.42;;
48743;SDS011;34538;48.836;9.174;2023-02-21T10:58:52;5.13;;;2.20;;
48743;SDS011;34538;48.836;9.174;2023-02-21T11:01:29;4.65;;;2.25;;
48743;SDS011;34538;48.836;9.174;2023-02-21T11:03:58;5.97;;;2.05;;
48743;SDS011;34538;48.836;9.174;2023-02-21T11:06:31;5.22;;;2.85;;
48743;SDS011;34538;48.836;9.174;2023-02-21T11:09:00;4.57;;;1.90;;
48743;SDS011;34538;48.836;9.174;2023-02-21T11:11:48;6.45;;;3.03;;
48743;SDS011;34538;48.836;9.174;2023-02-21T11:14:26;6.80;;;2.80;;
48743;SDS011;34538;48.836;9.174;2023-02-21T11:17:03;5.68;;;2.70;;
48743;SDS011;34538;48.836;9.174;2023-02-21T11:19:40;6.20;;;3.00;;
48743;SDS011;34538;48.836;9.174;2023-02-21T11:22:21;5.43;;;2.80;;
48743;SDS011;34538;48.836;9.174;2023-02-21T11:27:23;6.78;;;2.92;;
48743;SDS011;34538;48.836;9.174;2023-02-21T11:29:51;4.13;;;2.50;;
48743;SDS011;34538;48.836;9.174;2023-02-21T11:32:22;6.50;;;3.03;;
48743;SDS011;34538;48.836;9.174;2023-02-21T11:34:59;4.65;;;2.63;;
48743;SDS011;34538;48.836;9.174;2023-02-21T11:37:33;4.85;;;2.42;;
48743;SDS011;34538;48.836;9.174;2023-02-21T11:40:20;5.72;;;2.67;;
48743;SDS011;34538;48.836;9.174;2023-02-21T11:42:49;5.60;;;2.70;;
48743;SDS011;34538;48.836;9.174;2023-02-21T11:45:18;4.32;;;2.08;;
48743;SDS011;34538;48.836;9.174;2023-02-21T11:47:51;5.65;;;2.45;;
48743;SDS011;34538;48.836;9.174;2023-02-21T11:50:23;4.38;;;2.20;;
48743;SDS011;34538;48.836;9.174;2023-02-21T11:52:54;4.55;;;2.38;;
48743;SDS011;34538;48.836;9.174;2023-02-21T11:55:26;4.15;;;2.25;;
48743;SDS011;34538;48.836;9.174;2023-02-21T11:57:56;6.80;;;2.60;;
48743;SDS011;34538;48.836;9.174;2023-02-21T12:00:32;6.80;;;2.15;;
48743;SDS011;34538;48.836;9.174;2023-02-21T12:06:18;4.28;;;1.85;;
48743;SDS011;34538;48.836;9.174;2023-02-21T12:08:53;4.82;;;1.98;;
48743;SDS011;34538;48.836;9.174;2023-02-21T12:11:27;5.03;;;2.20;;
48743;SDS011;34538;48.836;9.174;2023-02-21T12:17:08;9.25;;;4.70;;
48743;SDS011;34538;48.836;9.174;2023-02-21T12:19:46;6.63;;;2.42;;
48743;SDS011;34538;48.836;9.174;2023-02-21T12:22:28;3.08;;;1.80;;
48743;SDS011;34538;48.836;9.174;2023-02-21T12:25:12;2.95;;;1.50;;
48743;SDS011;34538;48.836;9.174;2023-02-21T12:27:47;3.17;;;1.40;;
48743;SDS011;34538;48.836;9.174;2023-02-21T12:33:13;3.00;;;1.42;;
48743;SDS011;34538;48.836;9.174;2023-02-21T12:35:53;3.63;;;1.83;;
48743;SDS011;34538;48.836;9.174;2023-02-21T12:38:38;3.17;;;1.70;;
48743;SDS011;34538;48.836;9.174;2023-02-21T12:41:18;4.38;;;1.80;;
48743;SDS011;34538;48.836;9.174;2023-02-21T12:44:18;4.40;;;2.22;;
48743;SDS011;34538;48.836;9.174;2023-02-21T12:46:50;2.85;;;1.60;;
48743;SDS011;34538;48.836;9.174;2023-02-21T12:49:22;7.82;;;1.65;;
48743;SDS011;34538;48.836;9.174;2023-02-21T12:51:53;3.05;;;1.73;;
48743;SDS011;34538;48.836;9.174;2023-02-21T12:54:27;2.88;;;1.67;;
48743;SDS011;34538;48.836;9.174;2023-02-21T12:57:04;2.75;;;1.40;;
48743;SDS011;34538;48.836;9.174;2023-02-21T12:59:37;2.63;;;1.45;;
48743;SDS011;34538;48.836;9.174;2023-02-21T13:02:14;2.90;;;1.65;;
48743;SDS011;34538;48.836;9.174;2023-02-21T13:04:47;3.95;;;1.63;;
48743;SDS011;34538;48.836;9.174;2023-02-21T13:07:19;5.03;;;1.65;;
48743;SDS011;34538;48.836;9.174;2023-02-21T13:09:53;4.60;;;1.42;;
48743;SDS011;34538;48.836;9.174;2023-02-21T13:12:26;2.20;;;1.33;;
48743;SDS011;34538;48.836;9.174;2023-02-21T13:14:58;2.85;;;1.50;;
48743;SDS011;34538;48.836;9.174;2023-02-21T13:17:29;3.75;;;1.42;;
48743;SDS011;34538;48.836;9.174;2023-02-21T13:19:58;3.13;;;1.42;;
48743;SDS011;34538;48.836;9.174;2023-02-21T13:25:42;3.05;;;1.38;;
48743;SDS011;34538;48.836;9.174;2023-02-21T13:28:20;3.90;;;1.70;;
48743;SDS011;34538;48.836;9.174;2023-02-21T13:30:49;3.30;;;1.52;;
48743;SDS011;34538;48.836;9.174;2023-02-21T13:33:22;1.85;;;1.17;;
48743;SDS011;34538;48.836;9.174;2023-02-21T13:35:52;1.85;;;1.33;;
48743;SDS011;34538;48.836;9.174;2023-02-21T13:40:52;2.38;;;1.20;;
48743;SDS011;34538;48.836;9.174;2023-02-21T13:43:29;2.08;;;1.30;;
48743;SDS011;34538;48.836;9.174;2023-02-21T13:46:15;1.60;;;1.00;;
48743;SDS011;34538;48.836;9.174;2023-02-21T13:51:50;2.78;;;1.08;;
48743;SDS011;34538;48.836;9.174;2023-02-21T13:54:20;5.15;;;1.20;;
48743;SDS011;34538;48.836;9.174;2023-02-21T13:56:50;3.38;;;1.17;;
48743;SDS011;34538;48.836;9.174;2023-02-21T13:59:32;3.75;;;1.40;;
48743;SDS011;34538;48.836;9.174;2023-02-21T14:02:15;2.95;;;1.35;;
48743;SDS011;34538;48.836;9.174;2023-02-21T14:07:39;3.72;;;1.08;;
48743;SDS011;34538;48.836;9.174;2023-02-21T14:10:16;2.78;;;0.93;;
48743;SDS011;34538;48.836;9.174;2023-02-21T14:12:55;2.38;;;1.20;;
48743;SDS011;34538;48.836;9.174;2023-02-21T14:15:37;2.63;;;1.00;;
48743;SDS011;34538;48.836;9.174;2023-02-21T14:18:13;2.08;;;1.23;;
48743;SDS011;34538;48.836;9.174;2023-02-21T14:20:47;2.05;;;1.13;;
48743;SDS011;34538;48.836;9.174;2023-02-21T14:23:16;1.70;;;1.20;;
48743;SDS011;34538;48.836;9.174;2023-02-21T14:25:55;3.30;;;1.30;;
48743;SDS011;34538;48.836;9.174;2023-02-21T14:28:48;5.32;;;1.60;;
48743;SDS011;34538;48.836;9.174;2023-02-21T14:31:45;3.30;;;1.10;;
48743;SDS011;34538;48.836;9.174;2023-02-21T14:34:27;2.25;;;0.90;;
48743;SDS011;34538;48.836;9.174;2023-02-21T14:36:59;3.65;;;1.27;;
48743;SDS011;34538;48.836;9.174;2023-02-21T14:39:34;3.13;;;1.63;;
48743;SDS011;34538;48.836;9.174;2023-02-21T14:42:28;3.80;;;1.17;;
48743;SDS011;34538;48.836;9.174;2023-02-21T14:51:29;2.65;;;1.20;;
48743;SDS011;34538;48.836;9.174;2023-02-21T15:00:32;2.08;;;1.00;;
48743;SDS011;34538;48.836;9.174;2023-02-21T15:03:11;1.92;;;1.00;;
48743;SDS011;34538;48.836;9.174;2023-02-21T15:05:48;1.20;;;0.90;;
48743;SDS011;34538;48.836;9.174;2023-02-21T15:08:25;3.33;;;0.97;;
48743;SDS011;34538;48.836;9.174;2023-02-21T15:10:53;1.65;;;1.17;;
48743;SDS011;34538;48.836;9.174;2023-02-21T15:13:25;6.78;;;1.30;;
48743;SDS011;34538;48.836;9.174;2023-02-21T15:15:54;2.35;;;1.17;;
48743;SDS011;34538;48.836;9.174;2023-02-21T15:18:24;2.55;;;0.95;;
48743;SDS011;34538;48.836;9.174;2023-02-21T15:21:02;2.08;;;1.08;;
48743;SDS011;34538;48.836;9.174;2023-02-21T15:23:32;4.25;;;1.75;;
48743;SDS011;34538;48.836;9.174;2023-02-21T15:26:00;6.32;;;1.30;;
48743;SDS011;34538;48.836;9.174;2023-02-21T15:31:08;2.58;;;1.40;;
48743;SDS011;34538;48.836;9.174;2023-02-21T15:33:36;3.92;;;1.55;;
48743;SDS011;34538;48.836;9.174;2023-02-21T15:36:07;3.67;;;1.38;;
48743;SDS011;34538;48.836;9.174;2023-02-21T15:38:43;4.65;;;1.20;;
48743;SDS011;34538;48.836;9.174;2023-02-21T15:41:14;3.20;;;1.38;;
48743;SDS011;34538;48.836;9.174;2023-02-21T15:43:51;1.77;;;0.98;;
48743;SDS011;34538;48.836;9.174;2023-02-21T15:46:23;4.03;;;1.10;;
48743;SDS011;34538;48.836;9.174;2023-02-21T15:48:54;1.95;;;1.17;;
48743;SDS011;34538;48.836;9.174;2023-02-21T15:51:24;2.80;;;1.30;;
48743;SDS011;34538;48.836;9.174;2023-02-21T15:54:06;2.10;;;0.98;;
48743;SDS011;34538;48.836;9.174;2023-02-21T15:56:34;2.05;;;0.90;;
48743;SDS011;34538;48.836;9.174;2023-02-21T15:59:08;3.33;;;1.17;;
48743;SDS011;34538;48.836;9.174;2023-02-21T16:01:37;4.18;;;1.48;;
48743;SDS011;34538;48.836;9.174;2023-02-21T16:04:15;4.00;;;0.82;;
48743;SDS011;34538;48.836;9.174;2023-02-21T16:06:51;5.10;;;1.55;;
48743;SDS011;34538;48.836;9.174;2023-02-21T16:09:24;2.03;;;1.00;;
48743;SDS011;34538;48.836;9.174;2023-02-21T16:11:55;2.50;;;1.35;;